createdAt,value
2022-09-24T00:02:24.398Z,100.00
2022-09-24T00:04:52.868Z,100.00
2022-09-24T00:07:21.390Z,100.00
2022-09-24T00:09:49.752Z,100.00
2022-09-24T00:12:19.590Z,100.00
2022-09-24T00:14:48.003Z,100.00
2022-09-24T00:17:16.494Z,100.00
2022-09-24T00:19:44.933Z,100.00
2022-09-24T00:22:13.382Z,100.00
2022-09-24T00:24:59.139Z,100.00
2022-09-24T00:27:29.295Z,100.00
2022-09-24T00:29:58.160Z,100.00
2022-09-24T00:32:27.441Z,100.00
2022-09-24T00:34:56.155Z,100.00
2022-09-24T00:37:24.649Z,100.00
2022-09-24T00:39:53.333Z,100.00
2022-09-24T00:42:23.051Z,100.00
2022-09-24T00:44:55.932Z,100.00
2022-09-24T00:47:37.550Z,100.00
2022-09-24T00:50:14.733Z,100.00
2022-09-24T00:52:47.247Z,100.00
2022-09-24T00:55:16.835Z,100.00
2022-09-24T00:57:46.537Z,100.00
2022-09-24T01:00:17.396Z,100.00
2022-09-24T01:02:48.905Z,100.00
2022-09-24T01:05:18.331Z,100.00
2022-09-24T01:07:48.968Z,100.00
2022-09-24T01:10:39.455Z,100.00
2022-09-24T01:13:18.743Z,100.00
2022-09-24T01:15:56.933Z,100.00
2022-09-24T01:18:34.970Z,100.00
2022-09-24T01:21:26.675Z,100.00
2022-09-24T01:24:25.393Z,100.00
2022-09-24T01:27:03.217Z,100.00
2022-09-24T01:29:42.374Z,100.00
2022-09-24T01:32:20.371Z,100.00
2022-09-24T01:34:53.464Z,100.00
2022-09-24T01:37:26.523Z,100.00
2022-09-24T01:39:57.894Z,100.00
2022-09-24T01:42:30.080Z,100.00
2022-09-24T01:45:02.594Z,100.00
2022-09-24T01:47:35.091Z,100.00
2022-09-24T01:50:05.090Z,100.00
2022-09-24T01:52:42.357Z,100.00
2022-09-24T01:55:15.219Z,100.00
2022-09-24T01:57:47.999Z,100.00
2022-09-24T02:00:20.846Z,100.00
2022-09-24T02:02:57.053Z,100.00
2022-09-24T02:05:30.064Z,100.00
2022-09-24T02:08:06.425Z,100.00
2022-09-24T02:10:39.603Z,100.00
2022-09-24T02:13:14.272Z,100.00
2022-09-24T02:15:48.062Z,100.00
2022-09-24T02:18:19.912Z,100.00
2022-09-24T02:20:50.324Z,100.00
2022-09-24T02:23:20.665Z,100.00
2022-09-24T02:25:53.750Z,100.00
2022-09-24T02:28:23.155Z,100.00
2022-09-24T02:30:59.399Z,100.00
2022-09-24T02:33:48.342Z,100.00
2022-09-24T02:36:17.636Z,100.00
2022-09-24T02:38:47.042Z,100.00
2022-09-24T02:41:16.287Z,100.00
2022-09-24T02:43:44.756Z,100.00
2022-09-24T02:46:14.785Z,100.00
2022-09-24T02:48:43.509Z,100.00
2022-09-24T02:51:15.047Z,100.00
2022-09-24T02:53:43.485Z,100.00
2022-09-24T02:56:11.867Z,100.00
2022-09-24T02:58:40.285Z,100.00
2022-09-24T03:01:08.746Z,100.00
2022-09-24T03:03:38.770Z,100.00
2022-09-24T03:06:07.977Z,100.00
2022-09-24T03:08:36.641Z,100.00
2022-09-24T03:11:05.088Z,100.00
2022-09-24T03:13:34.894Z,100.00
2022-09-24T03:16:03.873Z,100.00
2022-09-24T03:18:32.408Z,100.00
2022-09-24T03:21:05.986Z,100.00
2022-09-24T03:23:34.794Z,100.00
2022-09-24T03:26:03.434Z,100.00
2022-09-24T03:28:32.793Z,100.00
2022-09-24T03:31:00.382Z,100.00
2022-09-24T03:33:30.061Z,100.00
2022-09-24T03:35:59.418Z,100.00
2022-09-24T03:38:30.161Z,100.00
2022-09-24T03:40:59.385Z,100.00
2022-09-24T03:43:28.417Z,100.00
2022-09-24T03:45:57.353Z,100.00
2022-09-24T03:48:27.718Z,100.00
2022-09-24T03:50:56.282Z,100.00
2022-09-24T03:53:24.926Z,100.00
2022-09-24T03:55:57.717Z,100.00
2022-09-24T03:58:26.632Z,100.00
2022-09-24T04:00:55.556Z,100.00
2022-09-24T04:03:24.389Z,100.00
2022-09-24T04:05:52.889Z,100.00
2022-09-24T04:08:21.649Z,100.00
2022-09-24T04:10:51.179Z,100.00
2022-09-24T04:13:21.462Z,100.00
2022-09-24T04:15:50.535Z,100.00
2022-09-24T04:18:19.842Z,100.00
2022-09-24T04:20:48.390Z,100.00
2022-09-24T04:23:17.140Z,100.00
2022-09-24T04:25:45.572Z,100.00
2022-09-24T04:28:14.002Z,100.00
2022-09-24T04:30:43.891Z,100.00
2022-09-24T04:33:12.704Z,100.00
2022-09-24T04:35:41.136Z,100.00
2022-09-24T04:38:11.740Z,100.00
2022-09-24T04:40:40.482Z,100.00
2022-09-24T04:43:09.220Z,100.00
2022-09-24T04:45:38.673Z,100.00
2022-09-24T04:48:08.659Z,100.00
2022-09-24T04:50:41.947Z,100.00
2022-09-24T04:53:13.434Z,100.00
2022-09-24T04:55:41.974Z,100.00
2022-09-24T04:58:10.808Z,100.00
2022-09-24T05:00:39.422Z,100.00
2022-09-24T05:03:09.367Z,100.00
2022-09-24T05:05:37.913Z,100.00
2022-09-24T05:08:06.494Z,100.00
2022-09-24T05:10:34.983Z,100.00
2022-09-24T05:13:03.448Z,100.00
2022-09-24T05:15:32.251Z,100.00
2022-09-24T05:18:00.665Z,100.00
2022-09-24T05:20:30.499Z,100.00
2022-09-24T05:22:58.959Z,100.00
2022-09-24T05:25:27.424Z,100.00
2022-09-24T05:27:55.757Z,100.00
2022-09-24T05:30:26.148Z,100.00
2022-09-24T05:32:54.648Z,100.00
2022-09-24T05:35:24.964Z,100.00
2022-09-24T05:37:55.186Z,100.00
2022-09-24T05:40:41.173Z,100.00
2022-09-24T05:43:09.899Z,100.00
2022-09-24T05:45:38.610Z,100.00
2022-09-24T05:48:07.200Z,100.00
2022-09-24T05:50:35.842Z,100.00
2022-09-24T05:53:08.046Z,100.00
2022-09-24T05:55:36.944Z,100.00
2022-09-24T05:58:07.550Z,100.00
2022-09-24T06:00:37.335Z,100.00
2022-09-24T06:03:08.229Z,100.00
2022-09-24T06:05:37.002Z,100.00
2022-09-24T06:08:08.943Z,100.00
2022-09-24T06:10:38.287Z,100.00
2022-09-24T06:13:06.949Z,100.00
2022-09-24T06:15:36.501Z,100.00
2022-09-24T06:18:04.938Z,100.00
2022-09-24T06:20:34.086Z,100.00
2022-09-24T06:23:03.816Z,100.00
2022-09-24T06:25:33.897Z,100.00
2022-09-24T06:28:04.459Z,100.00
2022-09-24T06:30:36.036Z,100.00
2022-09-24T06:33:05.876Z,100.00
2022-09-24T06:35:36.219Z,100.00
2022-09-24T06:38:05.330Z,100.00
2022-09-24T06:40:37.375Z,100.00
2022-09-24T06:43:07.009Z,100.00
2022-09-24T06:45:36.414Z,100.00
2022-09-24T06:48:06.631Z,100.00
2022-09-24T06:50:36.455Z,100.00
2022-09-24T06:53:07.732Z,100.00
2022-09-24T06:55:38.726Z,100.00
2022-09-24T06:58:08.459Z,100.00
2022-09-24T07:00:37.687Z,100.00
2022-09-24T07:03:06.787Z,100.00
2022-09-24T07:05:40.948Z,100.00
2022-09-24T07:08:11.187Z,100.00
2022-09-24T07:10:44.286Z,100.00
2022-09-24T07:13:14.407Z,100.00
2022-09-24T07:15:43.483Z,100.00
2022-09-24T07:18:12.209Z,100.00
2022-09-24T07:20:41.242Z,100.00
2022-09-24T07:23:11.315Z,100.00
2022-09-24T07:25:41.348Z,100.00
2022-09-24T07:28:12.022Z,100.00
2022-09-24T07:30:41.584Z,100.00
2022-09-24T07:33:10.803Z,100.00
2022-09-24T07:35:40.540Z,100.00
2022-09-24T07:38:12.401Z,100.00
2022-09-24T07:40:42.753Z,100.00
2022-09-24T07:43:14.157Z,100.00
2022-09-24T07:45:43.376Z,100.00
2022-09-24T07:48:13.092Z,100.00
2022-09-24T07:50:42.926Z,100.00
2022-09-24T07:53:12.903Z,100.00
2022-09-24T07:55:43.633Z,100.00
2022-09-24T07:58:15.236Z,100.00
2022-09-24T08:00:44.088Z,100.00
2022-09-24T08:03:12.580Z,100.00
2022-09-24T08:05:45.798Z,100.00
2022-09-24T08:08:15.178Z,100.00
2022-09-24T08:10:45.254Z,100.00
2022-09-24T08:13:13.999Z,100.00
2022-09-24T08:15:42.565Z,100.00
2022-09-24T08:18:11.386Z,100.00
2022-09-24T08:20:40.314Z,100.00
2022-09-24T08:23:11.372Z,100.00
2022-09-24T08:25:39.926Z,100.00
2022-09-24T08:28:12.595Z,100.00
2022-09-24T08:30:42.090Z,100.00
2022-09-24T08:33:10.690Z,100.00
2022-09-24T08:35:40.389Z,100.00
2022-09-24T08:38:10.104Z,100.00
2022-09-24T08:40:41.722Z,100.00
2022-09-24T08:43:26.097Z,100.00
2022-09-24T08:46:16.140Z,100.00
2022-09-24T08:48:49.752Z,100.00
2022-09-24T08:51:20.579Z,100.00
2022-09-24T08:53:54.764Z,100.00
2022-09-24T08:56:28.248Z,100.00
2022-09-24T08:59:01.650Z,100.00
2022-09-24T09:01:38.912Z,99.61
2022-09-24T09:04:24.000Z,100.00
2022-09-24T09:07:03.275Z,100.00
2022-09-24T09:09:43.485Z,99.92
2022-09-24T09:12:17.335Z,99.63
2022-09-24T09:14:51.709Z,99.73
2022-09-24T09:17:32.809Z,97.86
2022-09-24T09:20:05.188Z,96.76
2022-09-24T09:22:41.164Z,97.01
2022-09-24T09:25:20.056Z,98.53
2022-09-24T09:27:58.871Z,97.54
2022-09-24T09:30:36.050Z,97.02
2022-09-24T09:33:27.930Z,96.47
2022-09-24T09:36:04.429Z,93.89
2022-09-24T09:38:43.321Z,95.28
2022-09-24T09:41:21.256Z,92.58
2022-09-24T09:43:49.852Z,93.57
2022-09-24T09:46:24.949Z,92.63
2022-09-24T09:49:00.804Z,93.12
2022-09-24T09:51:36.806Z,93.64
2022-09-24T09:54:06.445Z,94.69
2022-09-24T09:56:39.638Z,96.30
2022-09-24T09:59:18.055Z,93.51
2022-09-24T10:01:56.008Z,92.87
2022-09-24T10:04:34.883Z,94.60
2022-09-24T10:07:09.916Z,93.46
2022-09-24T10:09:40.298Z,93.37
2022-09-24T10:12:18.815Z,92.51
2022-09-24T10:14:59.648Z,91.87
2022-09-24T10:17:35.679Z,91.05
2022-09-24T10:20:10.521Z,91.88
2022-09-24T10:22:40.475Z,93.65
2022-09-24T10:25:21.620Z,92.97
2022-09-24T10:27:50.738Z,93.08
2022-09-24T10:30:33.918Z,92.26
2022-09-24T10:33:05.460Z,92.31
2022-09-24T10:35:36.315Z,91.08
2022-09-24T10:38:16.816Z,91.99
2022-09-24T10:40:45.438Z,92.09
2022-09-24T10:43:18.897Z,90.15
2022-09-24T10:46:16.286Z,90.53
2022-09-24T10:48:54.515Z,88.63
2022-09-24T10:51:32.776Z,90.52
2022-09-24T10:54:20.169Z,89.92
2022-09-24T10:56:52.057Z,87.75
2022-09-24T10:59:41.552Z,87.69
2022-09-24T11:02:31.159Z,87.19
2022-09-24T11:05:05.665Z,86.59
2022-09-24T11:07:55.830Z,85.67
2022-09-24T11:10:37.383Z,85.13
2022-09-24T11:13:17.579Z,85.38
2022-09-24T11:16:15.771Z,83.95
2022-09-24T11:18:55.611Z,80.69
2022-09-24T11:21:34.804Z,81.33
2022-09-24T11:24:25.833Z,81.21
2022-09-24T11:27:06.023Z,79.77
2022-09-24T11:29:54.444Z,74.37
2022-09-24T11:32:29.389Z,76.16
2022-09-24T11:35:16.676Z,73.10
2022-09-24T11:37:57.891Z,74.17
2022-09-24T11:40:39.459Z,73.62
2022-09-24T11:43:34.083Z,78.25
2022-09-24T11:46:18.005Z,73.66
2022-09-24T11:49:15.231Z,71.72
2022-09-24T11:51:56.643Z,70.15
2022-09-24T11:54:32.049Z,72.03
2022-09-24T11:57:07.911Z,68.86
2022-09-24T11:59:44.600Z,68.02
2022-09-24T12:02:19.519Z,68.58
2022-09-24T12:05:01.447Z,66.56
2022-09-24T12:07:36.276Z,67.05
2022-09-24T12:10:25.255Z,68.38
2022-09-24T12:12:56.474Z,68.50
2022-09-24T12:15:28.796Z,65.90
2022-09-24T12:18:02.737Z,64.25
2022-09-24T12:20:32.780Z,64.40
2022-09-24T12:23:04.859Z,63.07
2022-09-24T12:25:41.709Z,59.36
2022-09-24T12:28:13.214Z,59.42
2022-09-24T12:31:07.400Z,61.22
2022-09-24T12:33:45.161Z,60.35
2022-09-24T12:36:19.494Z,58.91
2022-09-24T12:38:53.851Z,60.04
2022-09-24T12:41:34.493Z,61.57
2022-09-24T12:44:15.159Z,60.47
2022-09-24T12:46:50.206Z,58.65
2022-09-24T12:49:28.226Z,58.83
2022-09-24T12:51:59.028Z,58.91
2022-09-24T12:54:30.874Z,58.14
2022-09-24T12:57:15.180Z,56.58
2022-09-24T12:59:51.785Z,54.97
2022-09-24T13:02:23.887Z,52.80
2022-09-24T13:05:07.008Z,56.87
2022-09-24T13:07:37.230Z,54.32
2022-09-24T13:10:22.858Z,54.36
2022-09-24T13:12:53.087Z,52.75
2022-09-24T13:15:37.124Z,53.97
2022-09-24T13:18:24.412Z,53.49
2022-09-24T13:21:05.800Z,54.11
2022-09-24T13:23:45.814Z,53.36
2022-09-24T13:26:29.826Z,52.31
2022-09-24T13:29:01.703Z,51.70
2022-09-24T13:31:47.951Z,48.42
2022-09-24T13:34:21.499Z,48.59
2022-09-24T13:36:57.756Z,48.31
2022-09-24T13:39:34.491Z,49.32
2022-09-24T13:42:09.903Z,49.83
2022-09-24T13:44:43.843Z,47.65
2022-09-24T13:47:17.074Z,46.88
2022-09-24T13:49:49.351Z,47.88
2022-09-24T13:52:30.379Z,47.68
2022-09-24T13:55:04.049Z,49.35
2022-09-24T13:57:32.505Z,46.17
2022-09-24T14:00:16.476Z,45.06
2022-09-24T14:02:53.946Z,47.63
2022-09-24T14:05:23.597Z,47.52
2022-09-24T14:08:02.738Z,48.35
2022-09-24T14:10:31.267Z,48.83
2022-09-24T14:13:05.272Z,49.84
2022-09-24T14:15:36.432Z,49.98
2022-09-24T14:18:08.096Z,50.11
2022-09-24T14:20:40.605Z,50.69
2022-09-24T14:23:19.509Z,50.37
2022-09-24T14:25:50.320Z,51.28
2022-09-24T14:28:20.601Z,50.79
2022-09-24T14:30:55.012Z,50.73
2022-09-24T14:33:26.430Z,51.84
2022-09-24T14:35:57.518Z,51.69
2022-09-24T14:38:29.611Z,51.57
2022-09-24T14:41:03.356Z,51.32
2022-09-24T14:43:38.750Z,51.52
2022-09-24T14:46:16.037Z,52.44
2022-09-24T14:48:44.867Z,53.29
2022-09-24T14:51:26.095Z,53.38
2022-09-24T14:54:02.330Z,53.76
2022-09-24T14:56:33.192Z,51.86
2022-09-24T14:59:02.784Z,51.90
2022-09-24T15:01:34.500Z,50.97
2022-09-24T15:04:05.752Z,51.62
2022-09-24T15:06:36.663Z,52.10
2022-09-24T15:09:07.652Z,52.25
2022-09-24T15:11:43.132Z,52.96
2022-09-24T15:14:15.919Z,52.96
2022-09-24T15:16:48.100Z,53.38
2022-09-24T15:19:20.050Z,53.17
2022-09-24T15:21:49.981Z,54.35
2022-09-24T15:24:18.503Z,54.86
2022-09-24T15:26:48.604Z,54.87
2022-09-24T15:29:25.089Z,55.13
2022-09-24T15:31:56.741Z,62.50
2022-09-24T15:34:25.318Z,64.93
2022-09-24T15:36:56.666Z,62.40
2022-09-24T15:39:27.713Z,63.61
2022-09-24T15:41:56.199Z,58.98
2022-09-24T15:44:29.978Z,56.23
2022-09-24T15:47:03.266Z,55.86
2022-09-24T15:49:32.333Z,58.38
2022-09-24T15:52:04.085Z,60.60
2022-09-24T15:54:34.814Z,54.80
2022-09-24T15:57:03.304Z,59.08
2022-09-24T15:59:32.113Z,58.43
2022-09-24T16:02:05.537Z,58.21
2022-09-24T16:04:33.978Z,60.13
2022-09-24T16:07:02.589Z,58.04
2022-09-24T16:09:31.161Z,58.05
2022-09-24T16:11:59.562Z,57.83
2022-09-24T16:14:28.852Z,59.81
2022-09-24T16:16:57.304Z,59.80
2022-09-24T16:19:27.310Z,59.89
2022-09-24T16:21:55.907Z,61.68
2022-09-24T16:24:24.363Z,62.78
2022-09-24T16:26:53.016Z,63.65
2022-09-24T16:29:21.571Z,64.65
2022-09-24T16:31:50.229Z,64.28
2022-09-24T16:34:18.955Z,63.94
2022-09-24T16:36:49.306Z,64.87
2022-09-24T16:39:17.721Z,64.70
2022-09-24T16:41:46.371Z,64.85
2022-09-24T16:44:15.309Z,65.47
2022-09-24T16:46:44.181Z,66.13
2022-09-24T16:49:12.890Z,66.97
2022-09-24T16:51:41.554Z,67.57
2022-09-24T16:54:12.829Z,66.73
2022-09-24T16:56:41.435Z,67.65
2022-09-24T16:59:11.788Z,68.16
2022-09-24T17:01:42.640Z,68.29
2022-09-24T17:04:11.113Z,68.12
2022-09-24T17:06:39.797Z,68.54
2022-09-24T17:09:25.603Z,68.69
2022-09-24T17:11:56.534Z,70.04
2022-09-24T17:14:26.450Z,69.72
2022-09-24T17:16:54.935Z,69.74
2022-09-24T17:19:23.418Z,70.84
2022-09-24T17:21:52.421Z,71.23
2022-09-24T17:24:21.931Z,71.59
2022-09-24T17:26:50.918Z,71.91
2022-09-24T17:29:22.520Z,72.63
2022-09-24T17:31:51.226Z,72.23
2022-09-24T17:34:19.858Z,72.63
2022-09-24T17:36:50.812Z,73.02
2022-09-24T17:39:19.283Z,73.44
2022-09-24T17:41:47.734Z,73.92
2022-09-24T17:44:17.475Z,74.04
2022-09-24T17:46:47.549Z,74.43
2022-09-24T17:49:16.712Z,74.72
2022-09-24T17:51:48.194Z,75.18
2022-09-24T17:54:19.223Z,75.39
2022-09-24T17:56:47.983Z,76.33
2022-09-24T17:59:16.938Z,76.00
2022-09-24T18:01:47.349Z,76.56
2022-09-24T18:04:18.086Z,76.86
2022-09-24T18:06:48.495Z,77.73
2022-09-24T18:09:18.308Z,77.76
2022-09-24T18:11:48.758Z,77.96
2022-09-24T18:14:18.665Z,78.32
2022-09-24T18:16:49.604Z,78.94
2022-09-24T18:19:18.830Z,79.11
2022-09-24T18:21:49.462Z,79.55
2022-09-24T18:24:17.993Z,79.32
2022-09-24T18:26:51.307Z,79.75
2022-09-24T18:29:21.464Z,80.26
2022-09-24T18:31:51.925Z,80.61
2022-09-24T18:34:20.412Z,81.08
2022-09-24T18:36:48.906Z,86.05
2022-09-24T18:39:24.706Z,83.19
2022-09-24T18:41:53.941Z,83.30
2022-09-24T18:44:22.396Z,83.38
2022-09-24T18:46:52.710Z,83.59
2022-09-24T18:49:21.334Z,84.59
2022-09-24T18:51:52.249Z,84.62
2022-09-24T18:54:20.656Z,85.33
2022-09-24T18:56:49.144Z,85.25
2022-09-24T18:59:19.462Z,86.55
2022-09-24T19:01:49.598Z,85.82
2022-09-24T19:04:20.100Z,85.78
2022-09-24T19:06:50.843Z,85.99
2022-09-24T19:09:21.473Z,86.16
2022-09-24T19:11:50.178Z,85.93
2022-09-24T19:14:19.771Z,86.71
2022-09-24T19:16:48.800Z,87.08
2022-09-24T19:19:18.609Z,87.02
2022-09-24T19:21:47.180Z,87.46
2022-09-24T19:24:15.635Z,87.40
2022-09-24T19:26:46.843Z,87.39
2022-09-24T19:29:15.301Z,87.27
2022-09-24T19:31:45.791Z,87.42
2022-09-24T19:34:15.597Z,87.71
2022-09-24T19:36:45.751Z,88.48
2022-09-24T19:39:15.893Z,87.74
2022-09-24T19:41:45.002Z,87.62
2022-09-24T19:44:13.846Z,87.57
2022-09-24T19:46:43.172Z,87.71
2022-09-24T19:49:12.030Z,87.71
2022-09-24T19:51:41.041Z,87.89
2022-09-24T19:54:11.907Z,88.20
2022-09-24T19:56:41.703Z,88.48
2022-09-24T19:59:11.912Z,88.93
2022-09-24T20:01:40.791Z,88.58
2022-09-24T20:04:10.372Z,89.28
2022-09-24T20:06:39.910Z,89.91
2022-09-24T20:09:09.086Z,89.91
2022-09-24T20:11:39.146Z,90.32
2022-09-24T20:14:09.338Z,90.57
2022-09-24T20:16:38.343Z,90.92
2022-09-24T20:19:06.930Z,96.40
2022-09-24T20:21:36.349Z,97.75
2022-09-24T20:24:07.164Z,97.04
2022-09-24T20:26:53.920Z,94.33
2022-09-24T20:29:24.653Z,93.86
2022-09-24T20:31:56.371Z,96.92
2022-09-24T20:34:26.682Z,93.72
2022-09-24T20:36:55.252Z,93.09
2022-09-24T20:39:23.878Z,93.08
2022-09-24T20:41:52.378Z,93.06
2022-09-24T20:44:22.302Z,92.84
2022-09-24T20:46:52.449Z,92.63
2022-09-24T20:49:23.140Z,92.70
2022-09-24T20:51:56.693Z,92.97
2022-09-24T20:54:26.599Z,92.96
2022-09-24T20:56:55.135Z,92.86
2022-09-24T20:59:25.281Z,93.33
2022-09-24T21:01:55.967Z,93.03
2022-09-24T21:04:25.117Z,93.40
2022-09-24T21:06:54.835Z,93.78
2022-09-24T21:09:23.621Z,94.05
2022-09-24T21:11:54.597Z,94.20
2022-09-24T21:14:23.579Z,94.66
2022-09-24T21:16:54.451Z,94.50
2022-09-24T21:19:24.662Z,97.31
2022-09-24T21:21:54.057Z,97.89
2022-09-24T21:24:26.311Z,99.00
2022-09-24T21:26:59.261Z,98.19
2022-09-24T21:29:27.811Z,97.93
2022-09-24T21:31:56.196Z,98.58
2022-09-24T21:34:26.620Z,97.80
2022-09-24T21:36:55.236Z,97.90
2022-09-24T21:39:26.875Z,97.89
2022-09-24T21:41:59.711Z,98.04
2022-09-24T21:44:32.442Z,97.99
2022-09-24T21:47:01.081Z,98.11
2022-09-24T21:49:36.875Z,98.29
2022-09-24T21:52:06.905Z,99.01
2022-09-24T21:54:36.127Z,98.20
2022-09-24T21:57:04.593Z,97.99
2022-09-24T21:59:50.523Z,98.37
2022-09-24T22:02:19.147Z,98.44
2022-09-24T22:04:49.412Z,98.61
2022-09-24T22:07:18.469Z,98.54
2022-09-24T22:09:46.926Z,98.92
2022-09-24T22:12:15.610Z,98.81
2022-09-24T22:14:45.260Z,99.03
2022-09-24T22:17:14.397Z,99.01
2022-09-24T22:19:43.103Z,99.28
2022-09-24T22:22:12.919Z,99.46
2022-09-24T22:24:41.520Z,99.85
2022-09-24T22:27:10.089Z,99.84
2022-09-24T22:29:38.540Z,99.88
2022-09-24T22:32:07.040Z,99.72
2022-09-24T22:34:52.640Z,100.00
2022-09-24T22:37:23.015Z,100.00
2022-09-24T22:39:51.502Z,100.00
2022-09-24T22:42:20.467Z,100.00
2022-09-24T22:44:48.927Z,100.00
2022-09-24T22:47:17.377Z,100.00
2022-09-24T22:49:45.861Z,100.00
2022-09-24T22:52:14.359Z,100.00
2022-09-24T22:54:44.232Z,100.00
2022-09-24T22:57:12.645Z,100.00
2022-09-24T22:59:41.367Z,100.00
2022-09-24T23:02:13.194Z,100.00
2022-09-24T23:04:42.181Z,100.00
2022-09-24T23:07:10.922Z,100.00
2022-09-24T23:09:39.464Z,100.00
2022-09-24T23:12:09.728Z,100.00
2022-09-24T23:14:38.321Z,100.00
2022-09-24T23:17:07.744Z,100.00
2022-09-24T23:19:49.691Z,100.00
2022-09-24T23:22:21.521Z,100.00
2022-09-24T23:24:50.935Z,100.00
2022-09-24T23:27:21.426Z,100.00
2022-09-24T23:29:49.970Z,100.00
2022-09-24T23:32:18.495Z,100.00
2022-09-24T23:34:47.616Z,100.00
2022-09-24T23:37:16.036Z,100.00
2022-09-24T23:39:44.474Z,100.00
2022-09-24T23:42:12.896Z,100.00
2022-09-24T23:44:42.778Z,100.00
2022-09-24T23:47:11.176Z,100.00
2022-09-24T23:49:39.645Z,100.00
2022-09-24T23:52:08.105Z,100.00
2022-09-24T23:54:37.538Z,100.00
2022-09-24T23:57:06.632Z,100.00
2022-09-24T23:59:35.305Z,100.00
